Latest Weather Observations for Nambour

IDQ60901

Issued at 3:21 pm EST Tuesday 7 July 2015 (issued every 10 minutes, with the page automatically refreshed every 10 minutes)

About weather observations | Map of Brisbane area stations | Latest observations for Brisbane area | Other Formats
Station Details ID: 040988 Name: NAMBOUR DAFF - HILLSIDE Lat: -26.64 Lon: 152.94 Height: 53.24 m
Data from the previous 72 hours. | See also: Recent months at Nambour
Date/Time
EST
Tmp

°C
App
Tmp
°C
Dew
Point
°C
Rel
Hum
%
Delta-T

°C
Wind Press
QNH
hPa
Press
MSL
hPa
Rain
since
9 am
mm
Dir
 
Spd
km/h
Gust
km/h
Spd
kts
Gust
kts
07/03:00pm 21.9 19.5 -0.1 23 9.9 SSW 2 7 1 4 1016.8 1016.8 0.0
07/02:30pm 21.6 18.3 -1.6 21 10.1 ESE 6 13 3 7 1016.5 1016.5 0.0
07/02:00pm 22.6 19.6 -1.5 20 10.6 SSW 4 11 2 6 1016.5 1016.5 0.0
07/01:30pm 22.5 18.4 -3.0 18 10.9 WSW 9 15 5 8 1016.4 1016.4 0.0
07/01:00pm 22.7 19.1 -2.1 19 10.8 WSW 7 17 4 9 1016.5 1016.5 0.0
07/12:30pm 23.1 20.5 0.9 23 10.3 SW 4 11 2 6 1016.7 1016.7 0.0
07/12:00pm 22.2 19.5 3.8 30 8.9 WSW 7 13 4 7 1017.1 1017.1 0.0
07/11:30am 21.5 18.2 2.7 29 8.9 W 9 19 5 10 1017.6 1017.6 0.0
07/11:00am 20.8 17.9 2.6 30 8.5 W 7 13 4 7 1017.9 1017.9 0.0
07/10:30am 20.2 16.5 2.5 31 8.2 WSW 11 17 6 9 1018.2 1018.2 0.0
07/10:00am 19.7 15.7 3.0 33 7.8 WSW 13 20 7 11 1018.4 1018.4 0.0
07/09:30am 18.9 15.3 3.1 35 7.4 WSW 11 19 6 10 1018.5 1018.5 0.0
07/09:00am 18.5 15.4 5.4 42 6.4 WSW 11 22 6 12 1018.5 1018.5 0.0
07/08:30am 17.8 14.4 5.7 45 5.9 WSW 13 22 7 12 1018.3 1018.3 0.0
07/08:00am 17.4 14.9 6.6 49 5.3 WSW 9 19 5 10 1018.2 1018.2 0.0
07/07:30am 16.4 14.3 6.8 53 4.7 WSW 7 15 4 8 1017.9 1017.9 0.0
07/07:00am 11.7 10.3 8.7 82 1.5 WNW 6 9 3 5 1017.7 1017.7 0.0
07/06:30am 8.9 7.9 7.4 90 0.7 ENE 2 6 1 3 1017.5 1017.5 0.0
07/06:00am 9.3 8.5 8.2 93 0.5 E 2 6 1 3 1017.2 1017.2 0.0
07/05:30am 9.7 8.9 8.3 91 0.7 E 2 6 1 3 1016.8 1016.8 0.0
07/05:00am 9.7 9.2 8.0 89 0.8 CALM 0 0 0 0 1016.6 1016.6 0.0
07/04:30am 10.2 9.8 8.1 87 1.0 CALM 0 0 0 0 1016.5 1016.5 0.0
07/04:00am 10.5 10.1 8.3 86 1.1 CALM 0 0 0 0 1016.5 1016.5 0.0
07/03:30am 10.6 10.1 7.8 83 1.4 CALM 0 0 0 0 1016.7 1016.7 0.0
07/03:00am 11.0 10.7 8.6 85 1.2 CALM 0 0 0 0 1016.7 1016.7 0.0
07/02:30am 11.6 11.1 7.9 78 1.8 CALM 0 4 0 2 1016.9 1016.9 0.0
07/02:00am 12.4 11.9 7.9 74 2.2 CALM 0 2 0 1 1017.1 1017.1 0.0
07/01:30am 11.8 10.5 7.7 76 2.0 SSE 4 6 2 3 1017.1 1017.1 0.0
07/01:00am 13.8 12.7 8.4 70 2.7 ESE 4 6 2 3 1017.0 1017.0 0.0
07/12:30am 13.2 12.1 8.5 73 2.4 ESE 4 6 2 3 1017.0 1017.0 0.0
07/12:00am 13.0 11.9 8.3 73 2.3 E 4 6 2 3 1017.2 1017.2 0.0
 
Date/Time
EST
Tmp

°C
App
Tmp
°C
Dew
Point
°C
Rel
Hum
%
Delta-T

°C
Wind Press
QNH
hPa
Press
MSL
hPa
Rain
since
9 am
mm
Dir
 
Spd
km/h
Gust
km/h
Spd
kts
Gust
kts
06/11:30pm 13.2 12.8 8.3 72 2.4 CALM 0 4 0 2 1017.3 1017.3 0.0
06/11:00pm 13.1 12.8 8.6 74 2.3 CALM 0 4 0 2 1017.5 1017.5 0.0
06/10:30pm 13.8 13.6 9.0 73 2.4 CALM 0 2 0 1 1017.6 1017.6 0.0
06/10:00pm 11.9 11.7 8.9 82 1.5 CALM 0 0 0 0 1017.5 1017.5 0.0
06/09:30pm 12.3 12.0 8.8 79 1.8 CALM 0 0 0 0 1017.6 1017.6 0.0
06/09:00pm 12.7 12.5 9.0 78 1.9 CALM 0 0 0 0 1017.6 1017.6 0.0
06/08:30pm 13.0 12.9 9.4 79 1.8 CALM 0 0 0 0 1017.4 1017.4 0.0
06/08:00pm 12.8 12.7 9.6 81 1.6 CALM 0 0 0 0 1017.3 1017.3 0.0
06/07:30pm 13.1 13.1 9.9 81 1.6 CALM 0 0 0 0 1017.2 1017.2 0.0
06/07:00pm 14.0 14.1 10.0 77 2.1 CALM 0 0 0 0 1017.1 1017.1 0.0
06/06:30pm 14.4 14.5 10.2 76 2.2 CALM 0 2 0 1 1016.8 1016.8 0.0
06/06:00pm 15.2 15.3 10.0 71 2.7 CALM 0 0 0 0 1016.5 1016.5 0.0
06/05:30pm 16.6 16.5 9.5 63 3.7 CALM 0 0 0 0 1016.2 1016.2 0.0
06/05:00pm 18.6 18.3 10.2 58 4.5 NNW 2 6 1 3 1016.2 1016.2 0.0
06/04:30pm 21.2 20.0 8.1 43 6.8 NNE 4 7 2 4 1016.0 1016.0 0.0
06/04:00pm 22.2 21.0 8.0 40 7.4 N 4 7 2 4 1015.9 1015.9 0.0
06/03:30pm 22.5 21.1 7.1 37 8.0 N 4 7 2 4 1015.9 1015.9 0.0
06/03:00pm 22.9 21.1 7.1 36 8.2 NNW 6 9 3 5 1016.1 1016.1 0.0
06/02:30pm 22.9 20.5 7.1 36 8.2 WNW 9 15 5 8 1016.4 1016.4 0.0
06/02:00pm 23.1 22.3 8.0 38 8.0 NE 2 4 1 2 1016.4 1016.4 0.0
06/01:30pm 22.8 21.1 7.4 37 8.0 WSW 6 15 3 8 1016.7 1016.7 0.0
06/01:00pm 22.9 20.9 6.2 34 8.5 W 6 13 3 7 1017.1 1017.1 0.0
06/12:30pm 23.0 21.4 6.3 34 8.5 WSW 4 7 2 4 1017.5 1017.5 0.0
06/12:00pm 22.0 20.2 7.8 40 7.4 N 7 13 4 7 1018.0 1018.0 0.0
06/11:30am 21.5 19.4 8.1 42 7.0 N 9 13 5 7 1018.7 1018.7 0.0
06/11:00am 21.7 19.4 7.5 40 7.3 N 9 15 5 8 1019.2 1019.2 0.0
06/10:30am 21.6 20.5 8.5 43 6.9 NNE 4 9 2 5 1019.5 1019.5 0.0
06/10:00am 20.7 20.5 11.9 57 4.9 ENE 4 6 2 3 1019.7 1019.7 0.0
06/09:30am 19.4 20.2 12.4 64 3.9 CALM 0 2 0 1 1019.9 1019.9 0.0
06/09:00am 17.8 18.4 12.0 69 3.2 CALM 0 0 0 0 1020.0 1020.0 0.0
06/08:30am 15.5 16.1 11.9 79 2.0 CALM 0 0 0 0 1020.1 1020.1 0.0
06/08:00am 13.1 13.5 11.3 89 1.0 CALM 0 0 0 0 1020.0 1020.0 0.0
06/07:30am 11.9 12.2 11.0 94 0.5 CALM 0 0 0 0 1019.9 1019.9 0.0
06/07:00am 10.3 10.2 9.5 95 0.4 CALM 0 0 0 0 1019.8 1019.8 0.0
06/06:30am 11.2 11.0 10.6 96 0.3 SSE 2 4 1 2 1019.7 1019.7 0.0
06/06:00am 10.7 10.7 9.8 94 0.5 CALM 0 2 0 1 1019.5 1019.5 0.0
06/05:30am 12.4 12.4 11.3 93 0.6 WSW 2 7 1 4 1019.4 1019.4 0.0
06/05:00am 11.1 11.3 10.5 96 0.3 CALM 0 0 0 0 1019.4 1019.4 0.0
06/04:30am 12.0 12.5 11.5 97 0.3 CALM 0 0 0 0 1019.5 1019.5 0.0
06/04:00am 11.7 12.1 11.1 96 0.3 CALM 0 0 0 0 1019.6 1019.6 0.0
06/03:30am 11.8 12.2 11.3 97 0.3 CALM 0 0 0 0 1019.8 1019.8 0.0
06/03:00am 11.6 12.0 11.1 97 0.3 CALM 0 0 0 0 1019.9 1019.9 0.0
06/02:30am 11.6 12.0 11.1 97 0.3 CALM 0 0 0 0 1020.0 1020.0 0.0
06/02:00am 11.6 12.0 11.1 97 0.3 CALM 0 0 0 0 1020.3 1020.3 0.0
06/01:30am 11.3 11.6 10.8 97 0.3 CALM 0 0 0 0 1020.6 1020.6 0.0
06/01:00am 11.5 11.8 11.0 97 0.3 CALM 0 0 0 0 1020.9 1020.9 0.0
06/12:30am 11.1 11.3 10.6 97 0.3 CALM 0 0 0 0 1021.0 1021.0 0.0
06/12:00am 11.1 11.3 10.5 96 0.3 CALM 0 0 0 0 1021.1 1021.1 0.0
 
Date/Time
EST
Tmp

°C
App
Tmp
°C
Dew
Point
°C
Rel
Hum
%
Delta-T

°C
Wind Press
QNH
hPa
Press
MSL
hPa
Rain
since
9 am
mm
Dir
 
Spd
km/h
Gust
km/h
Spd
kts
Gust
kts
05/11:30pm 11.3 11.5 10.7 96 0.3 CALM 0 0 0 0 1021.1 1021.1 0.0
05/11:00pm 11.8 12.2 11.2 96 0.3 CALM 0 0 0 0 1021.1 1021.1 0.0
05/10:30pm 11.4 11.6 10.6 95 0.4 CALM 0 0 0 0 1021.2 1021.2 0.0
05/10:00pm 12.0 12.4 11.2 95 0.4 CALM 0 0 0 0 1021.5 1021.5 0.0
05/09:30pm 12.5 13.0 11.7 95 0.4 CALM 0 0 0 0 1021.6 1021.6 0.0
05/09:00pm 12.9 13.6 12.1 95 0.4 CALM 0 0 0 0 1021.4 1021.4 0.0
05/08:30pm 12.5 12.9 11.4 93 0.6 CALM 0 0 0 0 1021.4 1021.4 0.0
05/08:00pm 13.3 14.1 12.4 94 0.5 CALM 0 0 0 0 1021.1 1021.1 0.0
05/07:30pm 13.6 14.4 12.5 93 0.6 CALM 0 0 0 0 1021.2 1021.2 0.0
05/07:00pm 13.9 14.6 12.1 89 1.0 CALM 0 0 0 0 1021.0 1021.0 0.0
05/06:30pm 14.3 14.9 11.8 85 1.3 CALM 0 0 0 0 1020.9 1020.9 0.0
05/06:00pm 15.0 15.4 11.4 79 1.9 CALM 0 0 0 0 1020.8 1020.8 0.0
05/05:30pm 16.2 16.6 11.4 73 2.6 CALM 0 0 0 0 1020.6 1020.6 0.0
05/05:00pm 17.7 18.2 11.5 67 3.4 CALM 0 0 0 0 1020.4 1020.4 0.0
05/04:30pm 19.3 18.6 11.3 60 4.4 NNE 6 9 3 5 1020.2 1020.2 0.0
05/04:00pm 20.2 18.9 11.1 56 5.0 ENE 9 17 5 9 1019.9 1019.9 0.0
05/03:30pm 21.4 19.8 8.0 42 7.0 NNE 6 11 3 6 1019.8 1019.8 0.0
05/03:00pm 21.8 19.8 6.1 36 7.9 N 6 9 3 5 1019.9 1019.9 0.0
05/02:30pm 22.0 20.1 6.7 37 7.8 NW 6 9 3 5 1019.9 1019.9 0.0
05/02:00pm 21.6 20.7 9.2 45 6.6 E 4 7 2 4 1020.1 1020.1 0.0
05/01:30pm 20.6 20.2 9.8 50 5.8 W 2 4 1 2 1020.5 1020.5 0.0
05/01:00pm 20.6 19.9 10.1 51 5.7 WNW 4 6 2 3 1020.8 1020.8 0.0
05/12:30pm 20.5 19.8 10.0 51 5.7 WSW 4 7 2 4 1021.3 1021.3 0.0
05/12:00pm 20.4 20.4 11.1 55 5.1 WSW 2 6 1 3 1021.7 1021.7 0.0
05/11:30am 20.4 20.8 12.6 61 4.4 E 2 7 1 4 1022.2 1022.2 0.0
05/11:00am 19.6 19.9 13.5 68 3.5 ENE 4 6 2 3 1022.7 1022.7 0.0
05/10:30am 18.5 19.8 14.2 76 2.5 CALM 0 2 0 1 1023.1 1023.1 0.0
05/10:00am 17.0 18.5 14.6 86 1.4 CALM 0 2 0 1 1023.3 1023.3 0.0
05/09:30am 15.6 16.9 14.0 90 0.9 CALM 0 0 0 0 1023.4 1023.4 0.0
05/09:00am 14.2 15.2 13.1 93 0.6 CALM 0 0 0 0 1023.1 1023.1 0.0
05/08:30am 13.4 14.3 12.9 97 0.3 CALM 0 0 0 0 1022.8 1022.8 0.0
05/08:00am 11.2 11.4 10.6 96 0.3 CALM 0 0 0 0 1022.5 1022.5 0.0
05/07:30am 9.8 9.7 9.3 97 0.2 CALM 0 0 0 0 1022.2 1022.2 0.0
05/07:00am 9.8 9.7 9.3 97 0.2 CALM 0 0 0 0 1021.9 1021.9 0.0
05/06:30am 9.8 9.7 9.3 97 0.2 CALM 0 0 0 0 1021.7 1021.7 0.0
05/06:00am 9.9 9.8 9.4 97 0.2 CALM 0 0 0 0 1021.4 1021.4 0.0
05/05:30am 10.0 9.9 9.5 97 0.2 CALM 0 0 0 0 1021.2 1021.2 0.0
05/05:00am 9.8 9.6 9.2 96 0.3 CALM 0 0 0 0 1021.0 1021.0 0.0
05/04:30am 9.4 9.1 8.8 96 0.3 CALM 0 0 0 0 1021.0 1021.0 0.0
05/04:00am 9.2 8.5 8.4 95 0.4 ENE 2 2 1 1 1021.0 1021.0 0.0
05/03:30am 9.3 9.0 8.7 96 0.3 CALM 0 0 0 0 1021.1 1021.1 0.0
05/03:00am 9.7 9.5 8.9 95 0.4 CALM 0 0 0 0 1021.1 1021.1 0.0
05/02:30am 9.9 9.8 9.3 96 0.3 CALM 0 0 0 0 1021.3 1021.3 0.0
05/02:00am 9.9 9.8 9.3 96 0.3 CALM 0 4 0 2 1021.6 1021.6 0.0
05/01:30am 9.9 9.7 9.1 95 0.4 CALM 0 0 0 0 1021.9 1021.9 0.0
05/01:00am 10.6 9.5 10.0 96 0.3 WSW 6 9 3 5 1022.1 1022.1 0.0
05/12:30am 9.7 9.4 8.8 94 0.4 CALM 0 6 0 3 1022.3 1022.3 0.0
05/12:00am 10.4 10.3 9.6 95 0.4 CALM 0 2 0 1 1022.2 1022.2 0.0
 
Date/Time
EST
Tmp

°C
App
Tmp
°C
Dew
Point
°C
Rel
Hum
%
Delta-T

°C
Wind Press
QNH
hPa
Press
MSL
hPa
Rain
since
9 am
mm
Dir
 
Spd
km/h
Gust
km/h
Spd
kts
Gust
kts
04/11:30pm 11.6 11.9 10.8 95 0.4 CALM 0 0 0 0 1022.2 1022.2 0.0
04/11:00pm 11.4 11.0 9.8 90 0.8 SW 2 4 1 2 1022.4 1022.4 0.0
04/10:30pm 11.2 11.3 10.3 94 0.5 CALM 0 0 0 0 1022.7 1022.7 0.0
04/10:00pm 11.7 11.9 10.4 92 0.7 CALM 0 2 0 1 1022.7 1022.7 0.0
04/09:30pm 12.3 12.7 11.4 94 0.5 CALM 0 0 0 0 1022.6 1022.6 0.0
04/09:00pm 12.6 13.0 11.2 91 0.7 CALM 0 0 0 0 1022.6 1022.6 0.0
04/08:30pm 13.1 13.6 11.7 91 0.7 CALM 0 0 0 0 1022.7 1022.7 0.0
04/08:00pm 13.7 14.3 11.9 89 1.0 CALM 0 0 0 0 1022.7 1022.7 0.0
04/07:30pm 14.4 15.0 11.9 85 1.4 CALM 0 0 0 0 1022.3 1022.3 0.0
04/07:00pm 14.0 14.5 11.5 85 1.3 CALM 0 2 0 1 1022.0 1022.0 0.0
04/06:30pm 14.6 15.2 11.9 84 1.5 CALM 0 0 0 0 1021.5 1021.5 0.0
04/06:00pm 14.9 15.1 11.7 81 1.7 SW 2 2 1 1 1021.1 1021.1 0.0
04/05:30pm 15.5 15.9 11.1 75 2.4 CALM 0 0 0 0 1020.8 1020.8 0.0
04/05:00pm 16.6 17.0 11.1 70 3.0 CALM 0 0 0 0 1020.6 1020.6 0.0
04/04:30pm 18.3 18.0 11.4 64 3.8 ESE 4 7 2 4 1020.4 1020.4 0.0
04/04:00pm 19.1 18.7 11.2 60 4.3 SE 4 7 2 4 1020.4 1020.4 0.0
04/03:30pm 19.5 18.7 11.0 58 4.6 ESE 6 11 3 6 1020.4 1020.4 0.0

Latest Capital City Observations: Canberra | Sydney | Melbourne | Brisbane | Adelaide | Perth | Hobart | Darwin

Other Formats:

Comma delimited format used in spreadsheet applications
http://www.bom.gov.au/fwo/IDQ60901/IDQ60901.95572.axf

JavaScript Object Notation format (JSON) in row-major order
http://www.bom.gov.au/fwo/IDQ60901/IDQ60901.95572.json